sensor_id;sensor_type;location;lat;lon;timestamp;pressure;altitude;pressure_sealevel;temperature;humidity
61039;BME280;46919;45.816;3.104;2023-01-31T00:03:43;99090.28;;;0.54;100.00
61039;BME280;46919;45.816;3.104;2023-01-31T00:08:42;99076.72;;;0.58;100.00
61039;BME280;46919;45.816;3.104;2023-01-31T00:11:08;99074.75;;;0.60;100.00
61039;BME280;46919;45.816;3.104;2023-01-31T00:13:34;99067.47;;;0.62;100.00
61039;BME280;46919;45.816;3.104;2023-01-31T00:16:00;99065.81;;;0.61;100.00
61039;BME280;46919;45.816;3.104;2023-01-31T00:18:25;99062.03;;;0.63;100.00
61039;BME280;46919;45.816;3.104;2023-01-31T00:20:51;99051.50;;;0.62;100.00
61039;BME280;46919;45.816;3.104;2023-01-31T00:23:16;99050.13;;;0.58;100.00
61039;BME280;46919;45.816;3.104;2023-01-31T00:25:42;99051.91;;;0.57;100.00
61039;BME280;46919;45.816;3.104;2023-01-31T00:28:07;99052.06;;;0.56;100.00
61039;BME280;46919;45.816;3.104;2023-01-31T00:30:33;99048.41;;;0.57;100.00
61039;BME280;46919;45.816;3.104;2023-01-31T00:32:58;99040.44;;;0.57;100.00
61039;BME280;46919;45.816;3.104;2023-01-31T00:35:24;99050.94;;;0.58;100.00
61039;BME280;46919;45.816;3.104;2023-01-31T00:37:49;99048.84;;;0.62;100.00
61039;BME280;46919;45.816;3.104;2023-01-31T00:40:15;99044.53;;;0.61;100.00
61039;BME280;46919;45.816;3.104;2023-01-31T00:42:40;99042.00;;;0.59;100.00
61039;BME280;46919;45.816;3.104;2023-01-31T00:45:06;99042.69;;;0.61;100.00
61039;BME280;46919;45.816;3.104;2023-01-31T00:47:31;99044.25;;;0.64;100.00
61039;BME280;46919;45.816;3.104;2023-01-31T00:49:57;99034.72;;;0.61;100.00
61039;BME280;46919;45.816;3.104;2023-01-31T00:52:22;99043.53;;;0.62;100.00
61039;BME280;46919;45.816;3.104;2023-01-31T00:54:48;99038.34;;;0.60;100.00
61039;BME280;46919;45.816;3.104;2023-01-31T00:57:13;99043.66;;;0.60;100.00
61039;BME280;46919;45.816;3.104;2023-01-31T00:59:38;99044.25;;;0.64;100.00
61039;BME280;46919;45.816;3.104;2023-01-31T01:02:04;99034.59;;;0.63;100.00
61039;BME280;46919;45.816;3.104;2023-01-31T01:04:29;99040.88;;;0.62;100.00
61039;BME280;46919;45.816;3.104;2023-01-31T01:06:55;99035.28;;;0.65;100.00
61039;BME280;46919;45.816;3.104;2023-01-31T01:09:20;99032.63;;;0.65;100.00
61039;BME280;46919;45.816;3.104;2023-01-31T01:11:47;99035.28;;;0.65;100.00
61039;BME280;46919;45.816;3.104;2023-01-31T01:14:13;99032.63;;;0.65;100.00
61039;BME280;46919;45.816;3.104;2023-01-31T01:16:39;99039.25;;;0.70;100.00
61039;BME280;46919;45.816;3.104;2023-01-31T01:19:09;99043.00;;;0.68;100.00
61039;BME280;46919;45.816;3.104;2023-01-31T01:21:35;99043.13;;;0.66;100.00
61039;BME280;46919;45.816;3.104;2023-01-31T01:24:04;99045.09;;;0.64;100.00
61039;BME280;46919;45.816;3.104;2023-01-31T01:26:31;99035.28;;;0.65;100.00
61039;BME280;46919;45.816;3.104;2023-01-31T01:28:59;99038.06;;;0.63;100.00
61039;BME280;46919;45.816;3.104;2023-01-31T01:31:26;99039.34;;;0.59;100.00
61039;BME280;46919;45.816;3.104;2023-01-31T01:34:07;99034.41;;;0.54;100.00
61039;BME280;46919;45.816;3.104;2023-01-31T01:36:36;99047.97;;;0.51;100.00
61039;BME280;46919;45.816;3.104;2023-01-31T01:39:03;99043.09;;;0.57;100.00
61039;BME280;46919;45.816;3.104;2023-01-31T01:41:30;99042.00;;;0.59;100.00
61039;BME280;46919;45.816;3.104;2023-01-31T01:43:58;99039.22;;;0.61;100.00
61039;BME280;46919;45.816;3.104;2023-01-31T01:46:28;99040.88;;;0.62;100.00
61039;BME280;46919;45.816;3.104;2023-01-31T01:51:39;99056.13;;;0.60;100.00
61039;BME280;46919;45.816;3.104;2023-01-31T01:54:12;99058.53;;;0.63;100.00
61039;BME280;46919;45.816;3.104;2023-01-31T01:56:42;99057.44;;;0.65;100.00
61039;BME280;46919;45.816;3.104;2023-01-31T01:59:17;99060.22;;;0.64;100.00
61039;BME280;46919;45.816;3.104;2023-01-31T02:01:45;99062.88;;;0.64;100.00
61039;BME280;46919;45.816;3.104;2023-01-31T02:04:17;99053.22;;;0.63;100.00
61039;BME280;46919;45.816;3.104;2023-01-31T02:06:44;99055.75;;;0.64;100.00
61039;BME280;46919;45.816;3.104;2023-01-31T02:09:31;99056.56;;;0.65;100.00
61039;BME280;46919;45.816;3.104;2023-01-31T02:11:58;99049.59;;;0.64;100.00
61039;BME280;46919;45.816;3.104;2023-01-31T02:14:24;99062.88;;;0.64;100.00
61039;BME280;46919;45.816;3.104;2023-01-31T02:16:51;99060.34;;;0.62;100.00
61039;BME280;46919;45.816;3.104;2023-01-31T02:19:32;99066.06;;;0.58;100.00
61039;BME280;46919;45.816;3.104;2023-01-31T02:22:09;99069.00;;;0.54;100.00
61039;BME280;46919;45.816;3.104;2023-01-31T02:27:46;99068.44;;;0.51;100.00
61039;BME280;46919;45.816;3.104;2023-01-31T02:40:55;99072.34;;;0.57;100.00
61039;BME280;46919;45.816;3.104;2023-01-31T02:46:23;99075.03;;;0.57;100.00
61039;BME280;46919;45.816;3.104;2023-01-31T02:49:01;99080.34;;;0.57;100.00
61039;BME280;46919;45.816;3.104;2023-01-31T02:51:33;99078.94;;;0.52;100.00
61039;BME280;46919;45.816;3.104;2023-01-31T02:54:08;99078.94;;;0.52;100.00
61039;BME280;46919;45.816;3.104;2023-01-31T02:56:37;99086.78;;;0.54;100.00
61039;BME280;46919;45.816;3.104;2023-01-31T02:59:07;99087.88;;;0.51;100.00
61039;BME280;46919;45.816;3.104;2023-01-31T03:01:37;99090.53;;;0.51;100.00
61039;BME280;46919;45.816;3.104;2023-01-31T03:04:06;99098.97;;;0.57;100.00
61039;BME280;46919;45.816;3.104;2023-01-31T03:09:30;99088.31;;;0.57;100.00
61039;BME280;46919;45.816;3.104;2023-01-31T03:12:16;99090.72;;;0.60;100.00
61039;BME280;46919;45.816;3.104;2023-01-31T03:18:05;99093.50;;;0.58;100.00
61039;BME280;46919;45.816;3.104;2023-01-31T03:23:20;99092.97;;;0.64;100.00
61039;BME280;46919;45.816;3.104;2023-01-31T03:25:47;99098.88;;;0.68;100.00
61039;BME280;46919;45.816;3.104;2023-01-31T03:28:18;99104.13;;;0.79;100.00
61039;BME280;46919;45.816;3.104;2023-01-31T03:30:58;99097.25;;;0.77;100.00
61039;BME280;46919;45.816;3.104;2023-01-31T03:33:31;99108.56;;;0.69;100.00
61039;BME280;46919;45.816;3.104;2023-01-31T03:36:19;99101.41;;;0.69;100.00
61039;BME280;46919;45.816;3.104;2023-01-31T03:42:00;99095.00;;;0.72;100.00
61039;BME280;46919;45.816;3.104;2023-01-31T03:44:38;99087.00;;;0.72;100.00
61039;BME280;46919;45.816;3.104;2023-01-31T03:47:29;99086.63;;;0.77;100.00
61039;BME280;46919;45.816;3.104;2023-01-31T03:49:58;99086.34;;;0.80;100.00
61039;BME280;46919;45.816;3.104;2023-01-31T03:52:30;99087.19;;;0.80;100.00
61039;BME280;46919;45.816;3.104;2023-01-31T03:55:09;99093.47;;;0.79;100.00
61039;BME280;46919;45.816;3.104;2023-01-31T03:57:37;99098.66;;;0.81;100.00
61039;BME280;46919;45.816;3.104;2023-01-31T04:00:09;99098.41;;;0.84;100.00
61039;BME280;46919;45.816;3.104;2023-01-31T04:02:38;99102.75;;;0.85;100.00
61039;BME280;46919;45.816;3.104;2023-01-31T04:05:10;99099.97;;;0.86;100.00
61039;BME280;46919;45.816;3.104;2023-01-31T04:07:37;99099.69;;;0.89;100.00
61039;BME280;46919;45.816;3.104;2023-01-31T04:10:11;99105.03;;;0.89;100.00
61039;BME280;46919;45.816;3.104;2023-01-31T04:12:38;99106.13;;;0.87;100.00
61039;BME280;46919;45.816;3.104;2023-01-31T04:15:05;99099.97;;;0.86;100.00
61039;BME280;46919;45.816;3.104;2023-01-31T04:17:31;99100.09;;;0.85;100.00
61039;BME280;46919;45.816;3.104;2023-01-31T04:19:57;99103.72;;;0.84;100.00
61039;BME280;46919;45.816;3.104;2023-01-31T04:22:23;99103.72;;;0.84;100.00
61039;BME280;46919;45.816;3.104;2023-01-31T04:24:48;99103.59;;;0.85;100.00
61039;BME280;46919;45.816;3.104;2023-01-31T04:27:13;99102.88;;;0.83;100.00
61039;BME280;46919;45.816;3.104;2023-01-31T04:29:39;99109.91;;;0.84;100.00
61039;BME280;46919;45.816;3.104;2023-01-31T04:32:05;99108.91;;;0.85;100.00
61039;BME280;46919;45.816;3.104;2023-01-31T04:34:30;99111.56;;;0.85;100.00
61039;BME280;46919;45.816;3.104;2023-01-31T04:36:56;99109.03;;;0.84;100.00
61039;BME280;46919;45.816;3.104;2023-01-31T04:39:21;99105.69;;;0.82;100.00
61039;BME280;46919;45.816;3.104;2023-01-31T04:41:47;99111.13;;;0.80;100.00
61039;BME280;46919;45.816;3.104;2023-01-31T04:44:12;99110.44;;;0.78;100.00
61039;BME280;46919;45.816;3.104;2023-01-31T04:46:38;99112.53;;;0.75;100.00
61039;BME280;46919;45.816;3.104;2023-01-31T04:49:03;99106.47;;;0.72;100.00
61039;BME280;46919;45.816;3.104;2023-01-31T04:51:29;99104.34;;;0.66;100.00
61039;BME280;46919;45.816;3.104;2023-01-31T04:53:54;99115.09;;;0.65;100.00
61039;BME280;46919;45.816;3.104;2023-01-31T04:56:20;99110.66;;;0.65;100.00
61039;BME280;46919;45.816;3.104;2023-01-31T04:58:46;99112.19;;;0.68;100.00
61039;BME280;46919;45.816;3.104;2023-01-31T05:01:12;99111.22;;;0.69;100.00
61039;BME280;46919;45.816;3.104;2023-01-31T05:03:38;99105.63;;;0.72;100.00
61039;BME280;46919;45.816;3.104;2023-01-31T05:06:03;99106.72;;;0.69;100.00
61039;BME280;46919;45.816;3.104;2023-01-31T05:08:29;99108.81;;;0.66;100.00
61039;BME280;46919;45.816;3.104;2023-01-31T05:11:01;99104.47;;;0.65;100.00
61039;BME280;46919;45.816;3.104;2023-01-31T05:13:27;99103.50;;;0.66;100.00
61039;BME280;46919;45.816;3.104;2023-01-31T05:15:54;99106.16;;;0.66;100.00
61039;BME280;46919;45.816;3.104;2023-01-31T05:18:25;99121.28;;;0.65;100.00
61039;BME280;46919;45.816;3.104;2023-01-31T05:20:50;99120.16;;;0.68;100.00
61039;BME280;46919;45.816;3.104;2023-01-31T05:23:16;99120.16;;;0.68;100.00
61039;BME280;46919;45.816;3.104;2023-01-31T05:25:43;99119.91;;;0.71;100.00
61039;BME280;46919;45.816;3.104;2023-01-31T05:28:08;99126.22;;;0.70;100.00
61039;BME280;46919;45.816;3.104;2023-01-31T05:30:35;99124.00;;;0.75;100.00
61039;BME280;46919;45.816;3.104;2023-01-31T05:33:00;99122.16;;;0.76;100.00
61039;BME280;46919;45.816;3.104;2023-01-31T05:35:26;99127.63;;;0.74;100.00
61039;BME280;46919;45.816;3.104;2023-01-31T05:37:54;99132.13;;;0.74;100.00
61039;BME280;46919;45.816;3.104;2023-01-31T05:40:20;99130.81;;;0.68;100.00
61039;BME280;46919;45.816;3.104;2023-01-31T05:42:56;99125.47;;;0.68;100.00
61039;BME280;46919;45.816;3.104;2023-01-31T05:45:21;99139.78;;;0.67;100.00
61039;BME280;46919;45.816;3.104;2023-01-31T05:47:47;99126.75;;;0.64;100.00
61039;BME280;46919;45.816;3.104;2023-01-31T05:50:13;99123.09;;;0.65;100.00
61039;BME280;46919;45.816;3.104;2023-01-31T05:52:38;99127.44;;;0.66;100.00
61039;BME280;46919;45.816;3.104;2023-01-31T05:55:04;99130.81;;;0.68;100.00
61039;BME280;46919;45.816;3.104;2023-01-31T05:57:30;99131.06;;;0.65;100.00
61039;BME280;46919;45.816;3.104;2023-01-31T05:59:55;99128.16;;;0.68;100.00
61039;BME280;46919;45.816;3.104;2023-01-31T06:02:21;99131.06;;;0.65;100.00
61039;BME280;46919;45.816;3.104;2023-01-31T06:04:47;99136.66;;;0.62;100.00
61039;BME280;46919;45.816;3.104;2023-01-31T06:07:13;99140.19;;;0.62;100.00
61039;BME280;46919;45.816;3.104;2023-01-31T06:09:39;99133.28;;;0.60;100.00
61039;BME280;46919;45.816;3.104;2023-01-31T06:12:08;99140.44;;;0.59;100.00
61039;BME280;46919;45.816;3.104;2023-01-31T06:14:36;99142.97;;;0.61;100.00
61039;BME280;46919;45.816;3.104;2023-01-31T06:17:01;99152.75;;;0.60;100.00
61039;BME280;46919;45.816;3.104;2023-01-31T06:19:28;99153.47;;;0.62;100.00
61039;BME280;46919;45.816;3.104;2023-01-31T06:21:53;99156.00;;;0.64;100.00
61039;BME280;46919;45.816;3.104;2023-01-31T06:24:19;99148.03;;;0.64;100.00
61039;BME280;46919;45.816;3.104;2023-01-31T06:26:45;99150.69;;;0.64;100.00
61039;BME280;46919;45.816;3.104;2023-01-31T06:29:10;99147.91;;;0.65;100.00
61039;BME280;46919;45.816;3.104;2023-01-31T06:31:36;99152.09;;;0.68;100.00
61039;BME280;46919;45.816;3.104;2023-01-31T06:34:01;99147.63;;;0.68;100.00
61039;BME280;46919;45.816;3.104;2023-01-31T06:36:28;99151.13;;;0.69;100.00
61039;BME280;46919;45.816;3.104;2023-01-31T06:38:55;99155.75;;;0.67;100.00
61039;BME280;46919;45.816;3.104;2023-01-31T06:41:20;99157.41;;;0.68;100.00
61039;BME280;46919;45.816;3.104;2023-01-31T06:43:46;99160.06;;;0.68;100.00
61039;BME280;46919;45.816;3.104;2023-01-31T06:46:11;99158.53;;;0.65;100.00
61039;BME280;46919;45.816;3.104;2023-01-31T06:48:37;99157.66;;;0.65;100.00
61039;BME280;46919;45.816;3.104;2023-01-31T06:51:02;99159.38;;;0.66;100.00
61039;BME280;46919;45.816;3.104;2023-01-31T06:53:28;99161.91;;;0.67;100.00
61039;BME280;46919;45.816;3.104;2023-01-31T06:55:53;99164.81;;;0.64;100.00
61039;BME280;46919;45.816;3.104;2023-01-31T06:58:18;99157.66;;;0.65;100.00
61039;BME280;46919;45.816;3.104;2023-01-31T07:00:44;99168.31;;;0.65;100.00
61039;BME280;46919;45.816;3.104;2023-01-31T07:03:09;99171.97;;;0.64;100.00
61039;BME280;46919;45.816;3.104;2023-01-31T07:05:35;99167.47;;;0.64;100.00
61039;BME280;46919;45.816;3.104;2023-01-31T07:08:00;99175.22;;;0.67;100.00
61039;BME280;46919;45.816;3.104;2023-01-31T07:10:26;99173.38;;;0.68;100.00
61039;BME280;46919;45.816;3.104;2023-01-31T07:12:51;99174.38;;;0.67;100.00
61039;BME280;46919;45.816;3.104;2023-01-31T07:15:16;99179.44;;;0.70;100.00
61039;BME280;46919;45.816;3.104;2023-01-31T07:17:42;99181.09;;;0.71;100.00
61039;BME280;46919;45.816;3.104;2023-01-31T07:20:09;99177.75;;;0.69;100.00
61039;BME280;46919;45.816;3.104;2023-01-31T07:22:34;99177.59;;;0.70;100.00
61039;BME280;46919;45.816;3.104;2023-01-31T07:25:00;99174.56;;;0.75;100.00
61039;BME280;46919;45.816;3.104;2023-01-31T07:27:26;99179.88;;;0.75;100.00
61039;BME280;46919;45.816;3.104;2023-01-31T07:29:51;99192.19;;;0.76;100.00
61039;BME280;46919;45.816;3.104;2023-01-31T07:32:17;99205.50;;;0.76;100.00
61039;BME280;46919;45.816;3.104;2023-01-31T07:34:42;99190.97;;;0.80;100.00
61039;BME280;46919;45.816;3.104;2023-01-31T07:37:08;99195.34;;;0.81;100.00
61039;BME280;46919;45.816;3.104;2023-01-31T07:39:33;99197.00;;;0.82;100.00
61039;BME280;46919;45.816;3.104;2023-01-31T07:41:58;99187.78;;;0.86;100.00
61039;BME280;46919;45.816;3.104;2023-01-31T07:44:24;99191.16;;;0.88;100.00
61039;BME280;46919;45.816;3.104;2023-01-31T07:46:49;99191.75;;;0.92;100.00
61039;BME280;46919;45.816;3.104;2023-01-31T07:49:16;99182.66;;;0.95;100.00
61039;BME280;46919;45.816;3.104;2023-01-31T07:51:41;99193.75;;;1.00;100.00
61039;BME280;46919;45.816;3.104;2023-01-31T07:54:09;99196.13;;;1.03;100.00
61039;BME280;46919;45.816;3.104;2023-01-31T07:56:35;99199.28;;;1.08;100.00
61039;BME280;46919;45.816;3.104;2023-01-31T07:59:00;99199.97;;;1.10;100.00
61039;BME280;46919;45.816;3.104;2023-01-31T08:01:26;99198.59;;;1.16;100.00
61039;BME280;46919;45.816;3.104;2023-01-31T08:04:13;99193.88;;;1.19;100.00
61039;BME280;46919;45.816;3.104;2023-01-31T08:06:39;99197.78;;;1.25;100.00
61039;BME280;46919;45.816;3.104;2023-01-31T08:09:05;99206.13;;;1.32;100.00
61039;BME280;46919;45.816;3.104;2023-01-31T08:11:31;99201.94;;;1.39;100.00
61039;BME280;46919;45.816;3.104;2023-01-31T08:13:56;99201.13;;;1.48;100.00
61039;BME280;46919;45.816;3.104;2023-01-31T08:16:22;99206.91;;;1.53;100.00
61039;BME280;46919;45.816;3.104;2023-01-31T08:18:48;99212.38;;;1.61;100.00
61039;BME280;46919;45.816;3.104;2023-01-31T08:21:14;99208.34;;;1.67;100.00
61039;BME280;46919;45.816;3.104;2023-01-31T08:23:41;99221.84;;;1.75;100.00
61039;BME280;46919;45.816;3.104;2023-01-31T08:26:09;99212.91;;;1.86;100.00
61039;BME280;46919;45.816;3.104;2023-01-31T08:28:36;99217.69;;;1.92;100.00
61039;BME280;46919;45.816;3.104;2023-01-31T08:31:03;99217.97;;;1.99;100.00
61039;BME280;46919;45.816;3.104;2023-01-31T08:33:28;99221.94;;;2.05;100.00
61039;BME280;46919;45.816;3.104;2023-01-31T08:35:54;99219.97;;;2.07;100.00
61039;BME280;46919;45.816;3.104;2023-01-31T08:38:19;99230.06;;;2.13;100.00
61039;BME280;46919;45.816;3.104;2023-01-31T08:40:44;99227.69;;;2.20;100.00
61039;BME280;46919;45.816;3.104;2023-01-31T08:43:10;99230.38;;;2.29;100.00
61039;BME280;46919;45.816;3.104;2023-01-31T08:45:36;99225.59;;;2.33;100.00
61039;BME280;46919;45.816;3.104;2023-01-31T08:48:01;99226.44;;;2.33;100.00
61039;BME280;46919;45.816;3.104;2023-01-31T08:50:29;99230.97;;;2.43;100.00
61039;BME280;46919;45.816;3.104;2023-01-31T08:52:58;99227.84;;;2.47;100.00
61039;BME280;46919;45.816;3.104;2023-01-31T08:55:25;99224.75;;;2.52;100.00
61039;BME280;46919;45.816;3.104;2023-01-31T08:57:51;99216.91;;;2.60;100.00
61039;BME280;46919;45.816;3.104;2023-01-31T09:00:17;99220.25;;;2.72;100.00
61039;BME280;46919;45.816;3.104;2023-01-31T09:02:43;99218.88;;;2.78;100.00
61039;BME280;46919;45.816;3.104;2023-01-31T09:05:11;99219.53;;;2.89;100.00
61039;BME280;46919;45.816;3.104;2023-01-31T09:07:37;99217.72;;;3.00;100.00
61039;BME280;46919;45.816;3.104;2023-01-31T09:10:03;99221.34;;;3.08;100.00
61039;BME280;46919;45.816;3.104;2023-01-31T09:12:29;99221.00;;;3.21;100.00
61039;BME280;46919;45.816;3.104;2023-01-31T09:14:54;99219.03;;;3.33;100.00
61039;BME280;46919;45.816;3.104;2023-01-31T09:17:20;99224.63;;;3.40;100.00
61039;BME280;46919;45.816;3.104;2023-01-31T09:19:45;99223.59;;;3.51;100.00
61039;BME280;46919;45.816;3.104;2023-01-31T09:22:12;99219.88;;;3.61;100.00
61039;BME280;46919;45.816;3.104;2023-01-31T09:24:38;99219.41;;;3.76;100.00
61039;BME280;46919;45.816;3.104;2023-01-31T09:27:04;99221.31;;;3.84;100.00
61039;BME280;46919;45.816;3.104;2023-01-31T09:29:29;99215.16;;;3.83;100.00
61039;BME280;46919;45.816;3.104;2023-01-31T09:31:55;99215.09;;;3.93;100.00
61039;BME280;46919;45.816;3.104;2023-01-31T09:34:20;99220.53;;;4.01;100.00
61039;BME280;46919;45.816;3.104;2023-01-31T09:36:46;99222.31;;;4.10;100.00
61039;BME280;46919;45.816;3.104;2023-01-31T09:39:12;99227.00;;;4.26;100.00
61039;BME280;46919;45.816;3.104;2023-01-31T09:47:21;99220.41;;;4.57;100.00
61039;BME280;46919;45.816;3.104;2023-01-31T09:49:57;99229.00;;;4.60;100.00
61039;BME280;46919;45.816;3.104;2023-01-31T09:52:24;99226.25;;;4.70;100.00
61039;BME280;46919;45.816;3.104;2023-01-31T09:54:51;99223.88;;;4.67;100.00
61039;BME280;46919;45.816;3.104;2023-01-31T09:57:39;99219.50;;;4.66;100.00
61039;BME280;46919;45.816;3.104;2023-01-31T10:02:51;99225.00;;;4.82;100.00
61039;BME280;46919;45.816;3.104;2023-01-31T10:05:36;99221.63;;;4.98;100.00
61039;BME280;46919;45.816;3.104;2023-01-31T10:10:45;99214.75;;;5.22;100.00
61039;BME280;46919;45.816;3.104;2023-01-31T10:13:20;99216.97;;;5.26;100.00
61039;BME280;46919;45.816;3.104;2023-01-31T10:15:54;99218.97;;;5.33;100.00
61039;BME280;46919;45.816;3.104;2023-01-31T10:18:32;99213.56;;;5.51;100.00
61039;BME280;46919;45.816;3.104;2023-01-31T10:21:03;99218.66;;;5.62;100.00
61039;BME280;46919;45.816;3.104;2023-01-31T10:23:41;99215.31;;;5.60;100.00
61039;BME280;46919;45.816;3.104;2023-01-31T10:26:33;99218.50;;;5.63;100.00
61039;BME280;46919;45.816;3.104;2023-01-31T10:31:37;99206.84;;;5.81;100.00
61039;BME280;46919;45.816;3.104;2023-01-31T10:34:09;99207.84;;;5.88;99.45
61039;BME280;46919;45.816;3.104;2023-01-31T10:36:58;99200.13;;;5.85;98.59
61039;BME280;46919;45.816;3.104;2023-01-31T10:39:32;99208.84;;;5.79;98.44
61039;BME280;46919;45.816;3.104;2023-01-31T10:44:53;99197.53;;;5.67;97.42
61039;BME280;46919;45.816;3.104;2023-01-31T10:47:26;99197.72;;;5.66;96.77
61039;BME280;46919;45.816;3.104;2023-01-31T10:49:53;99190.91;;;5.88;96.02
61039;BME280;46919;45.816;3.104;2023-01-31T10:57:40;99178.59;;;6.11;94.72
61039;BME280;46919;45.816;3.104;2023-01-31T11:00:13;99172.75;;;6.16;93.98
61039;BME280;46919;45.816;3.104;2023-01-31T11:02:42;99171.44;;;6.28;93.22
61039;BME280;46919;45.816;3.104;2023-01-31T11:05:15;99166.75;;;6.55;92.80
61039;BME280;46919;45.816;3.104;2023-01-31T11:07:41;99160.03;;;6.67;93.10
61039;BME280;46919;45.816;3.104;2023-01-31T11:10:22;99170.44;;;6.79;93.67
61039;BME280;46919;45.816;3.104;2023-01-31T11:12:54;99154.66;;;6.84;93.27
61039;BME280;46919;45.816;3.104;2023-01-31T11:15:23;99157.84;;;6.79;93.76
61039;BME280;46919;45.816;3.104;2023-01-31T11:17:49;99155.63;;;6.91;93.55
61039;BME280;46919;45.816;3.104;2023-01-31T11:20:24;99152.63;;;6.94;93.99
61039;BME280;46919;45.816;3.104;2023-01-31T11:22:52;99149.94;;;6.94;94.38
61039;BME280;46919;45.816;3.104;2023-01-31T11:25:21;99142.19;;;6.91;93.72
61039;BME280;46919;45.816;3.104;2023-01-31T11:27:48;99147.88;;;7.13;92.95
61039;BME280;46919;45.816;3.104;2023-01-31T11:30:32;99135.25;;;7.21;92.08
61039;BME280;46919;45.816;3.104;2023-01-31T11:32:59;99134.41;;;7.21;91.91
61039;BME280;46919;45.816;3.104;2023-01-31T11:35:33;99127.19;;;7.30;92.24
61039;BME280;46919;45.816;3.104;2023-01-31T11:40:38;99119.88;;;7.47;91.76
61039;BME280;46919;45.816;3.104;2023-01-31T11:43:19;99118.16;;;7.54;92.30
61039;BME280;46919;45.816;3.104;2023-01-31T11:45:57;99113.41;;;7.64;91.41
61039;BME280;46919;45.816;3.104;2023-01-31T11:48:31;99112.81;;;7.46;90.99
61039;BME280;46919;45.816;3.104;2023-01-31T11:51:03;99110.69;;;7.64;90.86
61039;BME280;46919;45.816;3.104;2023-01-31T11:53:53;99107.59;;;8.07;87.75
61039;BME280;46919;45.816;3.104;2023-01-31T11:56:21;99108.53;;;7.91;88.35
61039;BME280;46919;45.816;3.104;2023-01-31T11:58:51;99112.06;;;7.91;87.84
61039;BME280;46919;45.816;3.104;2023-01-31T12:01:20;99105.91;;;7.83;87.10
61039;BME280;46919;45.816;3.104;2023-01-31T12:03:58;99106.38;;;7.86;86.50
61039;BME280;46919;45.816;3.104;2023-01-31T12:06:34;99106.38;;;7.86;86.66
61039;BME280;46919;45.816;3.104;2023-01-31T12:09:02;99108.94;;;7.79;86.10
61039;BME280;46919;45.816;3.104;2023-01-31T12:11:29;99116.38;;;7.77;86.08
61039;BME280;46919;45.816;3.104;2023-01-31T12:14:13;99104.44;;;7.72;84.40
61039;BME280;46919;45.816;3.104;2023-01-31T12:16:39;99109.19;;;7.70;84.66
61039;BME280;46919;45.816;3.104;2023-01-31T12:22:05;99088.66;;;7.69;79.55
61039;BME280;46919;45.816;3.104;2023-01-31T12:28:16;99079.44;;;7.63;72.14
61039;BME280;46919;45.816;3.104;2023-01-31T12:42:12;99084.31;;;7.59;76.99
61039;BME280;46919;45.816;3.104;2023-01-31T12:45:26;99087.53;;;7.63;77.84
61039;BME280;46919;45.816;3.104;2023-01-31T12:53:39;99086.19;;;7.59;72.85
61039;BME280;46919;45.816;3.104;2023-01-31T13:01:48;99080.81;;;7.59;70.28
61039;BME280;46919;45.816;3.104;2023-01-31T13:07:00;99071.38;;;7.63;70.04
61039;BME280;46919;45.816;3.104;2023-01-31T13:09:30;99072.84;;;7.66;69.16
61039;BME280;46919;45.816;3.104;2023-01-31T13:12:10;99070.75;;;7.53;69.27
61039;BME280;46919;45.816;3.104;2023-01-31T13:14:41;99068.88;;;7.53;70.19
61039;BME280;46919;45.816;3.104;2023-01-31T13:17:13;99075.47;;;7.51;69.71
61039;BME280;46919;45.816;3.104;2023-01-31T13:22:19;99068.88;;;7.53;69.53
61039;BME280;46919;45.816;3.104;2023-01-31T13:24:50;99072.47;;;7.46;68.37
61039;BME280;46919;45.816;3.104;2023-01-31T13:27:26;99064.22;;;7.47;68.87
61039;BME280;46919;45.816;3.104;2023-01-31T13:30:31;99057.69;;;7.41;68.56
61039;BME280;46919;45.816;3.104;2023-01-31T13:32:54;99067.09;;;7.46;68.63
61039;BME280;46919;45.816;3.104;2023-01-31T13:35:40;99063.31;;;7.55;69.35
61039;BME280;46919;45.816;3.104;2023-01-31T13:38:12;99060.28;;;7.58;68.51
61039;BME280;46919;45.816;3.104;2023-01-31T13:40:53;99065.25;;;7.46;67.89
61039;BME280;46919;45.816;3.104;2023-01-31T13:43:20;99054.34;;;7.39;68.55
61039;BME280;46919;45.816;3.104;2023-01-31T13:45:52;99054.34;;;7.39;68.70
61039;BME280;46919;45.816;3.104;2023-01-31T13:48:38;99060.25;;;7.35;69.19
61039;BME280;46919;45.816;3.104;2023-01-31T13:53:58;99061.94;;;7.28;68.79
61039;BME280;46919;45.816;3.104;2023-01-31T13:56:31;99055.63;;;7.20;67.82
61039;BME280;46919;45.816;3.104;2023-01-31T13:58:57;99060.00;;;7.13;68.28
61039;BME280;46919;45.816;3.104;2023-01-31T14:01:27;99062.69;;;7.13;68.72
61039;BME280;46919;45.816;3.104;2023-01-31T14:11:49;99068.09;;;7.05;68.29
61039;BME280;46919;45.816;3.104;2023-01-31T14:17:02;99063.06;;;7.02;67.93
61039;BME280;46919;45.816;3.104;2023-01-31T14:22:16;99063.56;;;6.97;67.75
61039;BME280;46919;45.816;3.104;2023-01-31T14:29:43;99074.84;;;6.93;67.97
61039;BME280;46919;45.816;3.104;2023-01-31T14:32:24;99074.66;;;6.94;67.94
61039;BME280;46919;45.816;3.104;2023-01-31T14:34:52;99067.13;;;6.89;66.42
61039;BME280;46919;45.816;3.104;2023-01-31T14:43:14;99064.94;;;6.93;67.42
61039;BME280;46919;45.816;3.104;2023-01-31T14:51:10;99047.03;;;7.25;68.19
61039;BME280;46919;45.816;3.104;2023-01-31T14:56:53;99038.34;;;7.46;66.95
61039;BME280;46919;45.816;3.104;2023-01-31T14:59:31;99038.63;;;7.51;68.14
61039;BME280;46919;45.816;3.104;2023-01-31T15:01:57;99038.56;;;7.91;65.93
61039;BME280;46919;45.816;3.104;2023-01-31T15:04:25;99041.53;;;7.96;65.77
61039;BME280;46919;45.816;3.104;2023-01-31T15:06:54;99026.91;;;8.37;64.37
61039;BME280;46919;45.816;3.104;2023-01-31T15:11:50;99044.63;;;8.54;63.35
61039;BME280;46919;45.816;3.104;2023-01-31T15:14:36;99046.78;;;8.59;63.18
61039;BME280;46919;45.816;3.104;2023-01-31T15:20:05;99045.13;;;8.73;62.56
61039;BME280;46919;45.816;3.104;2023-01-31T15:22:40;99044.00;;;8.67;62.92
61039;BME280;46919;45.816;3.104;2023-01-31T15:25:27;99034.81;;;8.38;62.55
61039;BME280;46919;45.816;3.104;2023-01-31T15:27:56;99039.69;;;8.20;63.09
61039;BME280;46919;45.816;3.104;2023-01-31T15:30:23;99040.03;;;8.16;63.22